Wednesday, October 17, 2018, 3:30 AM EDT
Back to Local

KNAK, Annapolis Us Naval Academy

Location: Annapolis, MD, United States Lat: 38.983
Local Time: 3:30 AM EDT ( 7:30 GMT) Lon: -76.483
Time Zone: US/Eastern Elev: 6 ft

Show me the last for .
Show Decoded

2018-10-17 02:54 METAR KNAK 170654Z AUTO 00000KT 10SM OVC033 15/09 A3006 RMK AO2 SLP179 T01500089
                 =
2018-10-17 01:54 METAR KNAK 170554Z AUTO 28004KT 10SM BKN033 OVC041 15/09 A3008 RMK AO2 SLP188
                 T01500089 10150 20144 57009 =
2018-10-17 00:54 METAR KNAK 170454Z AUTO 00000KT 10SM OVC041 15/08 A3009 RMK AO2 SLP190 T01500083
                 402110144 =
2018-10-16 23:54 METAR KNAK 170354Z AUTO 25003KT 10SM OVC034 15/08 A3010 RMK AO2 SLP195 T01500083
                 =
2018-10-16 22:54 METAR KNAK 170254Z AUTO VRB03KT 10SM CLR 14/08 A3011 RMK AO2 SLP197 T01440083
                 58006 =
2018-10-16 21:54 METAR KNAK 170154Z AUTO 25003KT 10SM CLR 14/08 A3012 RMK AO2 SLP200 T01440078 =
2018-10-16 20:54 METAR KNAK 170054Z AUTO 00000KT 10SM CLR 15/08 A3012 RMK AO2 SLP200 T01500083 =
2018-10-16 19:54 METAR KNAK 162354Z AUTO 00000KT 10SM CLR 15/08 A3012 RMK AO2 SLP203 T01500083
                 10183 20144 53001 =
2018-10-16 18:54 METAR KNAK 162254Z AUTO 26003KT 10SM CLR 15/05 A3012 RMK AO2 SLP201 T01500050 =
2018-10-16 17:54 METAR KNAK 162154Z AUTO 00000KT 10SM CLR 16/04 A3011 RMK AO2 SLP199 T01610039 =
2018-10-16 16:54 METAR KNAK 162054Z AUTO 29005KT 10SM CLR 17/03 A3012 RMK AO2 SLP201 T01720033
                 56014 =
2018-10-16 15:54 METAR KNAK 161954Z AUTO 28004KT 10SM CLR 17/02 A3012 RMK AO2 SLP202 T01720022 =
2018-10-16 14:54 METAR KNAK 161854Z AUTO 29005KT 10SM CLR 18/02 A3014 RMK AO2 SLP207 T01780017 =
2018-10-16 13:54 METAR KNAK 161754Z AUTO 33006KT 10SM CLR 17/05 A3016 RMK AO2 SLP216 T01720050
                 10172 20144 58021 =
2018-10-16 12:54 METAR KNAK 161654Z AUTO 35007KT 10SM CLR 17/05 A3019 RMK AO2 SLP225 T01670050 =
2018-10-16 11:54 METAR KNAK 161554Z AUTO 31004KT 10SM CLR 17/06 A3021 RMK AO2 SLP231 T01670056 =
2018-10-16 10:54 METAR KNAK 161454Z AUTO 34007KT 10SM CLR 16/06 A3022 RMK AO2 SLP236 T01560056
                 51012 =
2018-10-16 09:54 METAR KNAK 161354Z AUTO 33008KT 10SM CLR 15/06 A3022 RMK AO2 SLP234 T01500061 =
2018-10-16 08:54 METAR KNAK 161254Z AUTO 34008KT 10SM CLR 15/06 A3022 RMK AO2 SLP234 T01500061 =
2018-10-16 07:54 METAR KNAK 161154Z AUTO 34013KT 10SM CLR 16/06 A3019 RMK AO2 SLP224 70002
                 T01560061 10206 20150 53024 =
2018-10-16 06:54 METAR KNAK 161054Z AUTO 34008KT 10SM CLR 16/08 A3017 RMK AO2 SLP217 T01610078 =
2018-10-16 05:54 METAR KNAK 160954Z AUTO 33012KT 10SM FEW120 17/08 A3014 RMK AO2 SLP207 T01670078
                 =
2018-10-16 04:54 METAR KNAK 160854Z AUTO 33013KT 10SM CLR 17/08 A3012 RMK AO2 SLP200 T01720078
                 51019 =
2018-10-16 03:54 METAR KNAK 160754Z AUTO 32013G24KT 10SM OVC075 18/08 A3010 RMK AO2 SLP195
                 T01830083 =

Support USWX by starting your Amazon purchase here.